Time;durP1;ratioP1;P1;durP2;ratioP2;P2;SDS_P1;SDS_P2;PMS_P1;PMS_P2;Temp;Humidity;BMP_temperature;BMP_pressure;BME280_temperature;BME280_humidity;BME280_pressure;Samples;Min_cycle;Max_cycle;Signal;HPM_P1;HPM_P2
2022/07/27 00:04:30;;;;;;;8.10;2.60;;;;;;;17.85;73.89;99618.70;214695;1279;141008;-65
2022/07/27 00:09:34;;;;;;;3.70;2.40;;;;;;;17.82;73.81;99625.47;214722;1277;141414;-66
2022/07/27 00:14:37;;;;;;;2.60;2.40;;;;;;;17.78;73.77;99622.48;214079;1277;141913;-69
2022/07/27 00:19:40;;;;;;;17.40;3.10;;;;;;;17.75;73.78;99621.00;212789;1279;142389;-66
2022/07/27 00:24:43;;;;;;;2.30;2.20;;;;;;;17.69;73.77;99620.38;213203;1277;141796;-67
2022/07/27 00:29:46;;;;;;;1.90;1.80;;;;;;;17.59;73.69;99627.02;213814;1279;140638;-66
2022/07/27 00:34:49;;;;;;;2.10;1.70;;;;;;;17.48;73.55;99629.69;213024;1277;141978;-64
2022/07/27 00:39:53;;;;;;;4.00;1.80;;;;;;;17.37;73.14;99632.60;213524;1277;141673;-66
2022/07/27 00:44:57;;;;;;;2.50;1.70;;;;;;;17.25;72.97;99641.57;213114;1277;141999;-64
2022/07/27 00:50:00;;;;;;;2.60;1.70;;;;;;;17.13;72.83;99647.16;212881;1277;141248;-63
2022/07/27 00:55:04;;;;;;;1.80;1.50;;;;;;;17.03;72.63;99648.89;213622;1277;208333;-64
2022/07/27 01:00:08;;;;;;;2.70;1.30;;;;;;;16.98;72.51;99651.77;213044;1278;141804;-64
2022/07/27 01:05:12;;;;;;;2.90;1.20;;;;;;;16.96;72.29;99649.84;213002;1277;144053;-64
2022/07/27 01:10:16;;;;;;;2.30;1.20;;;;;;;16.92;71.98;99649.27;213572;1277;151834;-64
2022/07/27 01:15:19;;;;;;;2.10;1.00;;;;;;;16.85;71.92;99659.75;212966;1279;208691;-64
2022/07/27 01:20:22;;;;;;;4.90;1.30;;;;;;;16.78;71.80;99660.77;213779;1279;140378;-65
2022/07/27 01:25:25;;;;;;;1.00;1.00;;;;;;;16.74;71.90;99666.98;214122;1277;141016;-65
2022/07/27 01:30:29;;;;;;;2.40;1.50;;;;;;;16.74;71.90;99671.29;214402;1277;140633;-63
2022/07/27 01:35:33;;;;;;;1.90;1.40;;;;;;;16.72;71.87;99672.27;213662;1279;140622;-64
2022/07/27 01:40:38;;;;;;;18.90;1.40;;;;;;;16.70;71.89;99668.08;214545;1277;140135;-65
2022/07/27 01:45:43;;;;;;;12.70;1.50;;;;;;;16.67;71.90;99668.20;214186;1279;141751;-65
2022/07/27 01:50:47;;;;;;;4.40;1.20;;;;;;;16.65;71.96;99670.24;215258;1278;141921;-64
2022/07/27 01:55:50;;;;;;;2.10;1.40;;;;;;;16.64;72.18;99673.90;215382;1277;140820;-64
2022/07/27 02:00:56;;;;;;;6.50;1.40;;;;;;;16.66;72.46;99678.86;214317;1277;141304;-64
2022/07/27 02:05:59;;;;;;;2.90;1.10;;;;;;;16.68;72.38;99681.11;214612;1278;141405;-64
2022/07/27 02:16:48;;;;;;;1.10;1.10;;;;;;;16.76;72.75;99673.98;213338;1282;142346;-65
2022/07/27 02:21:53;;;;;;;3.70;1.10;;;;;;;16.73;72.87;99674.80;213564;1278;140031;-64
2022/07/27 02:26:55;;;;;;;1.60;1.20;;;;;;;16.65;72.64;99676.59;214155;1277;141484;-64
2022/07/27 02:31:59;;;;;;;3.70;1.30;;;;;;;16.53;72.56;99675.21;213750;1277;141277;-65
2022/07/27 02:37:02;;;;;;;1.20;1.10;;;;;;;16.42;72.43;99682.11;214167;1277;142068;-65
2022/07/27 02:42:05;;;;;;;0.90;0.90;;;;;;;16.25;72.34;99686.93;213872;1277;162567;-64
2022/07/27 02:47:07;;;;;;;1.80;1.50;;;;;;;16.10;72.35;99695.41;213399;1277;141619;-64
2022/07/27 02:52:10;;;;;;;1.40;1.20;;;;;;;15.95;72.38;99702.64;213111;1278;140834;-63
2022/07/27 02:57:13;;;;;;;2.20;1.10;;;;;;;15.81;72.44;99706.91;213274;1277;140873;-63
2022/07/27 03:02:16;;;;;;;4.00;1.20;;;;;;;15.66;72.53;99711.14;213480;1277;142554;-64
2022/07/27 03:07:18;;;;;;;1.70;1.60;;;;;;;15.54;72.79;99722.30;214239;1277;139526;-63
2022/07/27 03:12:21;;;;;;;1.70;1.40;;;;;;;15.45;73.08;99735.55;213136;1277;141579;-63
2022/07/27 03:17:24;;;;;;;1.80;1.70;;;;;;;15.42;73.44;99746.92;213441;1277;141423;-63
2022/07/27 03:22:29;;;;;;;1.30;1.20;;;;;;;15.40;73.80;99745.25;214033;1279;140926;-64
2022/07/27 03:27:33;;;;;;;3.60;1.50;;;;;;;15.42;74.17;99751.44;214535;1277;140535;-63
2022/07/27 03:32:36;;;;;;;2.10;1.90;;;;;;;15.49;74.47;99752.86;214302;1278;141477;-64
2022/07/27 03:37:39;;;;;;;1.20;1.20;;;;;;;15.56;74.53;99751.55;214458;1278;161700;-64
2022/07/27 03:42:42;;;;;;;4.40;1.40;;;;;;;15.63;74.48;99757.52;213937;1277;141828;-64
2022/07/27 03:47:45;;;;;;;1.40;1.40;;;;;;;15.68;74.26;99759.73;215781;1277;142049;-65
2022/07/27 03:52:49;;;;;;;11.70;2.50;;;;;;;15.70;74.05;99761.77;215593;1277;141472;-64
2022/07/27 03:57:52;;;;;;;1.30;1.20;;;;;;;15.85;73.93;99757.54;214718;1277;141273;-64
2022/07/27 04:02:55;;;;;;;2.20;1.50;;;;;;;16.19;73.69;99762.09;215001;1277;142237;-64
2022/07/27 04:07:59;;;;;;;7.80;2.30;;;;;;;16.37;73.64;99763.79;215369;1277;140215;-64
2022/07/27 04:13:01;;;;;;;2.60;2.00;;;;;;;16.57;73.61;99758.73;214901;1277;141982;-64
2022/07/27 04:18:06;;;;;;;1.50;1.40;;;;;;;16.70;73.22;99759.14;214101;1278;141500;-64
2022/07/27 04:23:10;;;;;;;2.10;1.30;;;;;;;17.09;72.84;99751.98;213643;1278;140527;-63
2022/07/27 04:28:12;;;;;;;2.90;2.10;;;;;;;17.34;72.39;99751.06;213659;1278;141886;-65
2022/07/27 04:33:15;;;;;;;3.10;1.60;;;;;;;17.43;72.36;99751.53;212975;1278;140666;-65
2022/07/27 04:38:18;;;;;;;3.90;1.20;;;;;;;17.57;71.98;99749.02;214109;1277;141320;-66
2022/07/27 04:43:22;;;;;;;8.80;1.60;;;;;;;17.76;71.68;99756.34;213072;1279;141211;-65
2022/07/27 04:48:25;;;;;;;2.00;1.40;;;;;;;18.18;71.07;99762.73;213080;1278;162485;-65
2022/07/27 04:53:29;;;;;;;3.10;1.20;;;;;;;19.03;69.91;99767.39;213257;1279;141182;-65
2022/07/27 04:58:32;;;;;;;2.70;1.50;;;;;;;19.66;68.99;99755.41;212813;1278;140969;-65
2022/07/27 05:03:35;;;;;;;1.90;1.20;;;;;;;19.59;68.71;99756.16;213598;1278;141271;-64
2022/07/27 05:08:39;;;;;;;12.50;1.80;;;;;;;19.74;67.98;99764.70;213084;1278;141569;-65
2022/07/27 05:13:43;;;;;;;9.40;2.10;;;;;;;19.51;67.75;99769.73;213582;1278;141221;-62
2022/07/27 05:18:45;;;;;;;1.20;1.10;;;;;;;19.27;67.42;99770.06;212854;1277;140894;-64
2022/07/27 05:23:48;;;;;;;6.50;1.60;;;;;;;19.05;67.40;99769.86;213071;1278;142397;-63
2022/07/27 05:28:51;;;;;;;4.20;1.80;;;;;;;19.12;67.04;99768.80;214402;1277;141416;-63
2022/07/27 05:33:54;;;;;;;3.50;0.70;;;;;;;19.02;66.74;99763.20;213522;1279;140884;-63
2022/07/27 05:39:01;;;;;;;2.70;1.10;;;;;;;21.12;64.62;99772.52;213332;1278;141303;-63
2022/07/27 05:44:04;;;;;;;2.00;0.90;;;;;;;25.10;60.50;99772.15;214395;1278;141572;-64
2022/07/27 05:49:06;;;;;;;3.30;1.40;;;;;;;24.97;58.45;99779.48;213275;1278;154075;-63
2022/07/27 05:54:10;;;;;;;2.70;1.20;;;;;;;24.07;57.52;99781.69;215208;1277;583763;-64
2022/07/27 05:59:13;;;;;;;2.30;1.00;;;;;;;23.62;57.19;99785.15;215307;1277;140123;-64
2022/07/27 06:04:17;;;;;;;5.40;1.40;;;;;;;23.18;56.39;99789.40;214947;1277;140372;-64
2022/07/27 06:09:20;;;;;;;1.90;1.00;;;;;;;22.61;56.47;99784.08;214150;1277;139218;-65
2022/07/27 06:14:24;;;;;;;4.00;1.40;;;;;;;22.81;55.92;99769.75;213055;1279;139586;-64
2022/07/27 06:19:28;;;;;;;3.30;1.00;;;;;;;25.69;52.63;99764.64;214494;1278;140484;-64
2022/07/27 06:24:39;;;;;;;3.50;1.20;;;;;;;27.77;50.23;99760.27;213747;1278;140007;-64
2022/07/27 06:29:42;;;;;;;2.80;1.00;;;;;;;28.69;47.13;99760.58;213927;1278;140806;-62
2022/07/27 06:34:45;;;;;;;1.90;1.10;;;;;;;29.93;45.53;99762.33;213080;1279;140034;-63
2022/07/27 06:39:50;;;;;;;0.80;0.60;;;;;;;29.69;44.70;99770.23;213288;1278;140713;-63
2022/07/27 06:44:53;;;;;;;3.50;0.70;;;;;;;28.83;44.11;99776.30;213571;1278;141102;-62
2022/07/27 06:49:58;;;;;;;3.40;1.50;;;;;;;28.32;44.24;99773.31;212921;1278;141120;-63
2022/07/27 06:55:04;;;;;;;5.50;1.30;;;;;;;27.95;43.83;99773.31;213563;1278;140928;-63
2022/07/27 07:00:08;;;;;;;2.80;1.00;;;;;;;27.39;44.26;99779.73;213053;1278;140861;-62
2022/07/27 07:05:13;;;;;;;2.10;0.90;;;;;;;27.07;44.21;99785.35;213464;1278;152482;-63
2022/07/27 07:10:16;;;;;;;2.70;1.10;;;;;;;27.79;42.68;99782.17;213856;1278;140969;-63
2022/07/27 07:15:21;;;;;;;1.70;1.10;;;;;;;29.17;41.84;99784.14;213803;1278;140051;-63
2022/07/27 07:20:25;;;;;;;0.90;0.70;;;;;;;30.44;41.18;99789.99;213471;1279;140459;-63
2022/07/27 07:25:28;;;;;;;2.80;1.20;;;;;;;31.40;39.86;99781.77;213157;1278;140883;-64
2022/07/27 07:30:32;;;;;;;1.70;0.70;;;;;;;31.59;38.66;99778.09;213929;1278;140219;-61
2022/07/27 07:35:35;;;;;;;8.40;1.20;;;;;;;30.99;38.39;99786.04;213944;1278;140694;-64
2022/07/27 07:40:38;;;;;;;1.70;0.80;;;;;;;30.13;38.86;99790.52;213123;1279;141913;-63
2022/07/27 07:45:46;;;;;;;5.10;1.20;;;;;;;29.18;39.17;99789.21;215228;1279;141313;-64
2022/07/27 07:50:57;;;;;;;0.90;0.90;;;;;;;28.25;39.22;99786.40;215335;1278;140120;-64
2022/07/27 07:56:01;;;;;;;4.70;1.40;;;;;;;27.08;39.86;99789.41;215402;1278;140759;-65
2022/07/27 08:01:04;;;;;;;2.60;1.10;;;;;;;26.85;41.22;99792.20;215356;1279;140807;-65
2022/07/27 08:06:08;;;;;;;5.50;1.50;;;;;;;27.10;42.17;99796.30;214984;1278;139244;-64
2022/07/27 08:11:12;;;;;;;3.30;1.30;;;;;;;26.68;41.86;99799.77;213783;1278;139796;-64
2022/07/27 08:16:18;;;;;;;2.30;1.40;;;;;;;26.23;42.40;99800.26;213623;1279;140949;-64
2022/07/27 08:21:22;;;;;;;3.20;1.00;;;;;;;26.08;43.03;99795.10;214601;1277;140549;-64
2022/07/27 08:26:25;;;;;;;3.80;1.30;;;;;;;26.60;43.42;99791.60;213200;1279;139758;-63
2022/07/27 08:31:28;;;;;;;3.90;1.50;;;;;;;27.36;42.72;99788.95;213505;1279;139734;-63
2022/07/27 08:36:55;;;;;;;1.60;1.30;;;;;;;27.87;42.43;99794.45;213590;1279;141043;-63
2022/07/27 08:42:05;;;;;;;1.30;1.10;;;;;;;27.52;41.55;99794.29;213229;1279;140457;-64
2022/07/27 08:47:13;;;;;;;0.90;0.90;;;;;;;27.26;41.72;99796.23;213399;1278;140191;-64
2022/07/27 08:52:18;;;;;;;1.90;1.00;;;;;;;27.16;42.26;99789.39;213537;1279;140169;-64
2022/07/27 08:57:22;;;;;;;2.20;1.10;;;;;;;27.29;42.86;99792.41;213728;1279;140344;-64
2022/07/27 09:02:26;;;;;;;3.90;1.10;;;;;;;27.27;42.74;99794.08;213625;1279;139987;-63
2022/07/27 09:07:30;;;;;;;1.80;1.50;;;;;;;27.62;43.00;99795.70;213870;1278;139617;-63
2022/07/27 09:12:34;;;;;;;5.20;1.90;;;;;;;27.94;42.36;99788.46;212854;1279;140805;-63
2022/07/27 09:17:39;;;;;;;4.50;1.10;;;;;;;27.86;42.48;99789.49;213899;1279;161862;-64
2022/07/27 09:22:55;;;;;;;4.00;1.50;;;;;;;27.58;42.36;99793.23;213193;1279;139992;-63
2022/07/27 09:27:59;;;;;;;2.50;1.40;;;;;;;27.49;43.12;99791.31;213818;1279;141496;-62
2022/07/27 09:33:05;;;;;;;2.40;1.60;;;;;;;27.79;42.85;99787.17;213686;1278;140528;-64
2022/07/27 09:38:22;;;;;;;2.50;1.40;;;;;;;28.10;42.82;99785.33;212497;1279;142891;-64
2022/07/27 09:43:25;;;;;;;4.70;1.60;;;;;;;27.89;41.93;99790.13;215176;1278;140130;-66
2022/07/27 09:48:49;;;;;;;7.70;1.40;;;;;;;27.49;42.21;99789.98;214896;1277;139311;-66
2022/07/27 09:53:53;;;;;;;2.90;1.30;;;;;;;27.08;42.20;99798.80;215111;1279;140672;-65
2022/07/27 09:58:58;;;;;;;1.20;1.10;;;;;;;26.66;42.15;99800.71;215405;1278;140527;-65
2022/07/27 10:04:07;;;;;;;1.30;1.30;;;;;;;26.19;42.71;99805.25;215498;1278;141391;-66
2022/07/27 10:09:10;;;;;;;2.90;1.20;;;;;;;25.71;43.06;99804.96;215000;1278;141547;-64
2022/07/27 10:14:12;;;;;;;5.30;1.50;;;;;;;25.22;43.21;99809.70;214574;1279;140055;-65
2022/07/27 10:19:24;;;;;;;2.40;1.00;;;;;;;24.68;43.90;99804.40;213124;1278;140386;-63
2022/07/27 10:24:36;;;;;;;3.20;0.90;;;;;;;24.32;44.65;99802.56;213957;1278;141879;-64
2022/07/27 10:29:41;;;;;;;1.50;1.30;;;;;;;24.01;45.40;99803.77;214678;1279;139631;-64
2022/07/27 10:34:46;;;;;;;4.20;2.30;;;;;;;23.93;46.54;99806.44;213857;1278;230963;-64
2022/07/27 10:40:32;;;;;;;4.80;1.80;;;;;;;24.04;46.88;99803.07;214167;1279;140813;-64
2022/07/27 10:45:17;;;;;;;3.40;1.30;;;;;;;24.23;46.79;99798.59;214056;1278;140225;-63
2022/07/27 10:50:28;;;;;;;2.80;1.30;;;;;;;24.30;46.52;99803.05;212911;1278;140733;-63
2022/07/27 10:55:41;;;;;;;1.60;0.70;;;;;;;24.65;46.69;99805.84;212878;1279;140080;-61
2022/07/27 11:00:49;;;;;;;3.40;1.30;;;;;;;25.01;46.51;99802.04;214004;1279;141283;-65
2022/07/27 11:06:06;;;;;;;2.00;1.70;;;;;;;25.22;46.11;99799.48;214228;1279;139886;-65
2022/07/27 11:11:36;;;;;;;4.20;1.20;;;;;;;25.26;45.80;99801.20;213845;1279;139751;-65
2022/07/27 11:16:43;;;;;;;2.80;1.20;;;;;;;25.15;45.66;99804.63;213065;1278;140464;-64
2022/07/27 11:21:59;;;;;;;2.00;1.10;;;;;;;24.99;45.78;99805.52;212720;1279;140306;-64
2022/07/27 11:27:10;;;;;;;1.10;1.10;;;;;;;25.01;46.51;99807.48;213727;1278;141255;-63
2022/07/27 11:32:22;;;;;;;1.10;1.00;;;;;;;25.15;46.41;99809.76;213169;1278;139583;-64
2022/07/27 11:37:29;;;;;;;3.10;1.30;;;;;;;25.60;46.59;99799.16;212966;1278;139746;-64
2022/07/27 11:42:41;;;;;;;1.50;1.40;;;;;;;25.87;46.08;99794.66;213705;1280;139672;-64
2022/07/27 11:47:55;;;;;;;2.00;1.20;;;;;;;25.94;45.97;99792.16;213205;1279;139386;-64
2022/07/27 11:52:59;;;;;;;3.40;1.70;;;;;;;25.71;45.65;99797.84;214645;1279;139305;-64
2022/07/27 11:58:06;;;;;;;2.40;1.60;;;;;;;25.61;46.17;99792.36;215279;1279;141117;-64
2022/07/27 12:03:22;;;;;;;2.90;1.20;;;;;;;25.73;46.02;99789.24;215356;1279;141088;-65
2022/07/27 12:08:38;;;;;;;2.20;1.00;;;;;;;26.11;45.59;99784.59;214884;1277;140589;-64
2022/07/27 12:13:44;;;;;;;3.20;1.30;;;;;;;26.14;45.36;99778.20;214674;1279;140880;-65
2022/07/27 12:18:49;;;;;;;1.80;1.20;;;;;;;25.88;45.40;99774.31;214440;1279;140571;-64
2022/07/27 12:23:56;;;;;;;1.60;1.20;;;;;;;25.61;45.60;99769.33;213188;1278;139568;-66
2022/07/27 12:29:20;;;;;;;1.60;1.30;;;;;;;25.49;46.17;99776.92;214031;1278;141063;-65
2022/07/27 12:34:30;;;;;;;1.50;1.40;;;;;;;25.89;46.63;99763.84;213975;1277;139265;-64
2022/07/27 12:39:37;;;;;;;2.10;1.20;;;;;;;26.02;45.86;99767.42;213458;1277;140194;-64
2022/07/27 12:44:45;;;;;;;18.10;2.50;;;;;;;26.27;45.68;99769.01;213389;1278;139590;-65
2022/07/27 12:50:13;;;;;;;0.80;0.80;;;;;;;26.30;45.43;99768.63;213027;1281;140386;-64
2022/07/27 12:55:17;;;;;;;3.10;1.50;;;;;;;25.96;45.13;99765.11;213987;1281;140398;-64
2022/07/27 13:00:23;;;;;;;1.30;1.30;;;;;;;25.72;45.32;99763.42;213390;1280;139359;-65
2022/07/27 13:05:34;;;;;;;1.40;1.20;;;;;;;25.89;45.45;99762.97;212910;1279;140329;-63
2022/07/27 13:10:39;;;;;;;1.40;1.30;;;;;;;25.94;45.26;99766.03;213097;1278;139516;-65
2022/07/27 13:15:44;;;;;;;1.30;1.20;;;;;;;25.75;45.19;99763.46;212730;1281;139785;-63
2022/07/27 13:20:51;;;;;;;1.60;1.50;;;;;;;25.77;45.74;99769.41;214143;1277;140039;-65
2022/07/27 13:25:58;;;;;;;2.10;1.80;;;;;;;25.52;46.16;99769.23;213982;1277;139379;-65
2022/07/27 13:31:05;;;;;;;1.60;1.50;;;;;;;25.58;46.39;99765.02;212720;1279;139644;-64
2022/07/27 13:36:10;;;;;;;3.70;2.00;;;;;;;25.49;46.47;99763.43;213284;1279;140486;-65
2022/07/27 13:41:12;;;;;;;1.60;1.50;;;;;;;25.16;46.60;99760.47;212583;1277;146075;-65
2022/07/27 13:46:15;;;;;;;1.50;1.40;;;;;;;25.17;46.97;99760.04;213602;1279;140327;-63
2022/07/27 13:51:17;;;;;;;2.80;1.70;;;;;;;25.24;46.91;99757.80;213137;1278;140346;-64
2022/07/27 13:56:19;;;;;;;1.80;1.50;;;;;;;24.97;46.35;99749.98;215188;1277;140083;-64
2022/07/27 14:01:25;;;;;;;1.30;1.30;;;;;;;24.81;46.75;99751.89;214097;1277;140241;-63
2022/07/27 14:06:28;;;;;;;5.60;1.90;;;;;;;24.70;46.72;99753.80;215374;1278;140359;-64
2022/07/27 14:11:34;;;;;;;2.30;1.40;;;;;;;24.78;46.96;99747.17;215027;1279;140646;-63
2022/07/27 14:16:37;;;;;;;2.40;2.20;;;;;;;24.90;46.79;99743.98;214419;1278;140078;-63
2022/07/27 14:21:40;;;;;;;1.60;1.50;;;;;;;24.68;46.45;99746.23;213376;1277;139442;-64
2022/07/27 14:26:42;;;;;;;3.00;1.30;;;;;;;24.45;46.86;99753.88;213628;1279;140023;-62
2022/07/27 14:31:44;;;;;;;2.40;1.20;;;;;;;24.51;47.01;99746.39;214759;1279;140200;-63
2022/07/27 14:36:47;;;;;;;7.90;1.40;;;;;;;24.50;46.99;99754.06;214446;1277;139648;-64
2022/07/27 14:41:49;;;;;;;3.40;1.80;;;;;;;24.45;46.51;99758.85;213419;1279;141720;-63
2022/07/27 14:46:52;;;;;;;2.00;1.00;;;;;;;24.33;46.17;99755.23;213245;1279;141354;-64
2022/07/27 14:51:54;;;;;;;5.70;1.20;;;;;;;24.21;46.30;99755.69;214059;1277;150735;-65
2022/07/27 14:56:57;;;;;;;1.80;1.30;;;;;;;24.16;46.40;99753.15;214237;1278;140900;-63
2022/07/27 15:02:00;;;;;;;5.00;1.70;;;;;;;24.27;46.68;99752.61;213709;1279;141677;-63
2022/07/27 15:07:05;;;;;;;4.90;1.60;;;;;;;24.39;46.37;99748.55;213409;1278;139844;-62
2022/07/27 15:12:11;;;;;;;2.20;1.50;;;;;;;24.47;45.86;99753.92;213396;1277;139383;-62
2022/07/27 15:17:14;;;;;;;10.50;1.50;;;;;;;24.41;45.52;99749.08;213181;1278;162080;-62
2022/07/27 15:22:16;;;;;;;1.80;1.70;;;;;;;24.15;45.63;99747.83;213467;1279;141045;-64
2022/07/27 15:27:19;;;;;;;5.60;2.10;;;;;;;23.86;45.78;99750.79;212680;1277;140417;-65
2022/07/27 15:32:22;;;;;;;2.20;1.20;;;;;;;23.61;45.90;99758.96;214276;1278;140387;-65
2022/07/27 15:37:25;;;;;;;2.60;1.80;;;;;;;23.39;45.50;99757.50;213739;1279;151417;-64
2022/07/27 15:42:29;;;;;;;2.10;1.40;;;;;;;23.17;45.39;99756.35;214514;1278;141427;-65
2022/07/27 15:47:41;;;;;;;2.50;1.50;;;;;;;22.94;45.05;99756.27;214167;1277;140987;-66
2022/07/27 15:52:48;;;;;;;6.50;1.90;;;;;;;22.90;45.13;99752.49;215127;1278;140399;-65
2022/07/27 15:58:01;;;;;;;4.60;1.30;;;;;;;22.89;45.16;99751.77;215132;1279;141491;-66
2022/07/27 16:03:15;;;;;;;4.30;1.50;;;;;;;22.79;44.91;99756.37;215338;1278;139499;-66
2022/07/27 16:08:26;;;;;;;3.50;1.60;;;;;;;22.58;44.97;99757.81;215014;1278;141423;-65
2022/07/27 16:13:34;;;;;;;5.60;2.20;;;;;;;22.43;45.18;99763.63;215142;1277;141550;-67
2022/07/27 16:18:43;;;;;;;7.40;2.40;;;;;;;22.36;45.14;99767.04;215310;1277;139876;-65
2022/07/27 16:23:57;;;;;;;9.60;2.40;;;;;;;22.28;45.27;99762.30;213857;1279;140846;-65
2022/07/27 16:29:08;;;;;;;5.10;1.90;;;;;;;22.20;45.23;99759.43;214867;1277;140899;-63
2022/07/27 16:34:18;;;;;;;6.80;1.40;;;;;;;22.12;45.19;99766.30;213212;1277;139651;-64
2022/07/27 16:39:27;;;;;;;2.10;1.20;;;;;;;22.08;45.52;99755.86;213826;1279;141076;-64
2022/07/27 16:44:34;;;;;;;;;;;;;;;22.09;45.31;99750.73;213870;1278;141732;-65
2022/07/27 16:49:43;;;;;;;4.30;1.20;;;;;;;22.01;45.35;99748.92;214733;1279;127333;-67
2022/07/27 16:54:52;;;;;;;2.30;0.90;;;;;;;21.99;45.28;99743.15;213380;1277;141364;-64
2022/07/27 17:00:04;;;;;;;2.80;1.20;;;;;;;21.98;45.30;99735.65;212328;1279;141918;-63
2022/07/27 17:05:29;;;;;;;0.70;0.70;;;;;;;21.90;45.45;99737.56;212910;1279;140740;-64
2022/07/27 17:10:41;;;;;;;0.90;0.70;;;;;;;21.76;44.93;99734.33;212703;1278;139830;-64
2022/07/27 17:15:53;;;;;;;2.00;1.20;;;;;;;21.69;45.30;99728.70;213256;1278;140981;-64
2022/07/27 17:21:06;;;;;;;4.60;1.30;;;;;;;21.67;45.33;99727.01;213951;1279;139351;-64
2022/07/27 17:26:16;;;;;;;0.90;0.90;;;;;;;21.66;46.00;99729.05;214449;1279;139965;-65
2022/07/27 17:31:30;;;;;;;2.70;0.70;;;;;;;21.65;45.63;99734.39;213273;1278;141510;-64
2022/07/27 17:36:40;;;;;;;1.20;0.80;;;;;;;21.64;45.50;99740.27;213161;1277;140982;-66
2022/07/27 17:41:48;;;;;;;1.50;1.30;;;;;;;21.58;45.07;99738.13;214587;1277;154650;-64
2022/07/27 17:46:59;;;;;;;1.30;0.90;;;;;;;21.50;45.22;99737.99;213470;1277;142689;-64
2022/07/27 17:52:10;;;;;;;2.90;1.10;;;;;;;21.40;45.58;99743.47;212616;1277;2341530;-65
2022/07/27 17:57:18;;;;;;;2.00;0.90;;;;;;;21.33;45.79;99747.02;215266;1277;140665;-65
2022/07/27 18:02:27;;;;;;;1.40;0.60;;;;;;;21.29;46.89;99748.80;215414;1278;140770;-65
2022/07/27 18:07:38;;;;;;;1.20;0.80;;;;;;;21.22;47.91;99752.70;215370;1277;140854;-65
2022/07/27 18:12:49;;;;;;;2.20;0.60;;;;;;;21.14;48.13;99751.08;215358;1277;141603;-65
2022/07/27 18:17:57;;;;;;;1.30;1.00;;;;;;;21.00;48.80;99761.63;215420;1277;141371;-64
2022/07/27 18:23:04;;;;;;;1.80;0.80;;;;;;;20.84;49.80;99767.09;215539;1277;140683;-65
2022/07/27 18:28:14;;;;;;;2.00;1.20;;;;;;;20.68;50.01;99771.52;214708;1277;140616;-64
2022/07/27 18:33:17;;;;;;;1.30;0.90;;;;;;;20.54;50.77;99772.71;215443;1278;142724;-65
2022/07/27 18:38:20;;;;;;;3.00;1.10;;;;;;;20.35;51.66;99777.81;213370;1277;140212;-64
2022/07/27 18:43:25;;;;;;;4.50;1.30;;;;;;;20.16;52.16;99790.90;214365;1277;140961;-65
2022/07/27 18:48:29;;;;;;;2.40;1.20;;;;;;;19.93;52.33;99797.25;214499;1278;142749;-65
2022/07/27 18:53:38;;;;;;;2.50;1.10;;;;;;;19.68;52.92;99803.17;213936;1277;141374;-65
2022/07/27 18:58:48;;;;;;;5.00;1.20;;;;;;;19.49;53.91;99808.69;212715;1277;140659;-64
2022/07/27 19:03:52;;;;;;;3.40;1.20;;;;;;;19.26;54.44;99822.60;212772;1278;141516;-65
2022/07/27 19:09:03;;;;;;;4.50;1.30;;;;;;;18.98;55.02;99827.59;212748;1279;140395;-64
2022/07/27 19:14:08;;;;;;;1.60;1.20;;;;;;;18.72;55.51;99840.36;213595;1279;140724;-64
2022/07/27 19:19:16;;;;;;;2.90;1.20;;;;;;;18.45;55.90;99852.90;213895;1277;139746;-64
2022/07/27 19:24:30;;;;;;;7.50;1.70;;;;;;;18.20;56.38;99857.91;214032;1278;140533;-66
2022/07/27 19:29:36;;;;;;;4.80;1.70;;;;;;;17.97;56.82;99861.63;214371;1277;140531;-65
2022/07/27 19:34:51;;;;;;;2.80;1.60;;;;;;;17.79;57.28;99871.23;214676;1277;139959;-64
2022/07/27 19:40:00;;;;;;;1.50;1.40;;;;;;;17.63;57.42;99878.11;214787;1277;140102;-64
2022/07/27 19:45:23;;;;;;;3.70;1.90;;;;;;;17.46;57.66;99886.86;212644;1277;140061;-65
2022/07/27 19:50:27;;;;;;;4.10;2.30;;;;;;;17.33;57.45;99894.36;213088;1277;140623;-65
2022/07/27 19:55:31;;;;;;;3.90;2.30;;;;;;;17.20;57.48;99900.90;215232;1277;140871;-65
2022/07/27 20:00:34;;;;;;;4.00;2.50;;;;;;;17.00;57.41;99903.17;215431;1277;140076;-65
2022/07/27 20:05:38;;;;;;;4.50;2.60;;;;;;;16.85;57.62;99912.94;215619;1277;141681;-65
2022/07/27 20:10:41;;;;;;;10.00;3.10;;;;;;;16.69;57.86;99916.35;215694;1277;141334;-65
2022/07/27 20:15:45;;;;;;;10.00;3.50;;;;;;;16.57;58.46;99923.37;215294;1277;141410;-65
2022/07/27 20:20:50;;;;;;;6.00;2.80;;;;;;;16.47;58.60;99926.35;214538;1277;142893;-64
2022/07/27 20:25:54;;;;;;;3.40;2.30;;;;;;;16.35;58.63;99926.11;215206;1277;140887;-65
2022/07/27 20:30:56;;;;;;;3.20;2.40;;;;;;;16.16;58.87;99933.73;215380;1278;140192;-65
2022/07/27 20:35:59;;;;;;;3.50;2.30;;;;;;;16.00;59.36;99939.38;213183;1279;141132;-65
2022/07/27 20:41:01;;;;;;;5.10;2.50;;;;;;;15.89;59.58;99946.09;214633;1278;139542;-65
2022/07/27 20:46:08;;;;;;;4.10;2.30;;;;;;;15.72;59.54;99948.77;213606;1277;140716;-66
2022/07/27 20:51:18;;;;;;;3.30;2.10;;;;;;;15.59;59.82;99957.69;213550;1277;141143;-64
2022/07/27 20:56:33;;;;;;;3.80;1.80;;;;;;;15.45;60.00;99963.45;213357;1277;139790;-65
2022/07/27 21:02:00;;;;;;;3.20;2.20;;;;;;;15.29;60.51;99965.63;212382;1278;139667;-65
2022/07/27 21:07:04;;;;;;;1.50;1.40;;;;;;;15.14;60.82;99979.92;213480;1277;141271;-65
2022/07/27 21:12:06;;;;;;;2.40;2.20;;;;;;;14.91;61.08;99984.97;213692;1277;139965;-64
2022/07/27 21:17:12;;;;;;;7.50;2.20;;;;;;;14.82;61.91;99985.97;213658;1279;141395;-66
2022/07/27 21:22:16;;;;;;;1.90;1.80;;;;;;;14.78;62.13;99994.36;213958;1277;141410;-64
2022/07/27 21:27:21;;;;;;;;;;;;;;;14.73;62.25;99996.04;212727;1279;139367;-64
2022/07/27 21:32:23;;;;;;;2.00;1.90;;;;;;;14.62;62.17;99999.16;214082;1279;126405;-64
2022/07/27 21:37:26;;;;;;;4.50;2.00;;;;;;;14.49;62.19;100004.73;212714;1278;140703;-65
2022/07/27 21:42:30;;;;;;;2.00;1.20;;;;;;;14.37;62.47;100006.73;215095;1277;141226;-66
2022/07/27 21:47:32;;;;;;;4.30;1.40;;;;;;;14.24;62.62;100015.02;213863;1279;140406;-65
2022/07/27 21:52:34;;;;;;;1.70;1.60;;;;;;;14.10;62.57;100020.80;213351;1277;140651;-66
2022/07/27 21:57:37;;;;;;;4.40;2.20;;;;;;;13.92;62.55;100026.17;213638;1277;140645;-65
2022/07/27 22:02:39;;;;;;;2.50;1.70;;;;;;;13.69;62.47;100027.32;212818;1279;141727;-64
2022/07/27 22:07:41;;;;;;;6.30;2.00;;;;;;;13.48;62.84;100033.30;215340;1278;142416;-65
2022/07/27 22:12:43;;;;;;;6.10;2.20;;;;;;;13.39;63.69;100034.48;214757;1279;142165;-65
2022/07/27 22:17:49;;;;;;;3.60;2.00;;;;;;;13.38;64.04;100036.27;215500;1278;142554;-65
2022/07/27 22:22:53;;;;;;;3.30;2.30;;;;;;;13.41;64.60;100032.41;214036;1277;141705;-65
2022/07/27 22:27:57;;;;;;;2.60;2.00;;;;;;;13.42;64.56;100039.27;213279;1279;142262;-64
2022/07/27 22:33:00;;;;;;;6.10;1.90;;;;;;;13.32;64.25;100048.13;212893;1278;206901;-64
2022/07/27 22:38:04;;;;;;;22.20;3.30;;;;;;;13.13;64.21;100053.39;214302;1278;154001;-65
2022/07/27 22:43:07;;;;;;;3.50;2.40;;;;;;;13.00;64.99;100054.44;214571;1278;141215;-65
2022/07/27 22:48:09;;;;;;;6.90;2.20;;;;;;;13.01;65.43;100054.58;213898;1278;141561;-65
2022/07/27 22:53:14;;;;;;;4.60;2.10;;;;;;;13.00;65.40;100060.60;213328;1279;236441;-65
2022/07/27 22:58:17;;;;;;;6.60;2.20;;;;;;;12.90;65.42;100062.17;213321;1278;141495;-65
2022/07/27 23:03:19;;;;;;;3.90;1.50;;;;;;;12.73;65.78;100069.02;213969;1277;142193;-66
2022/07/27 23:08:22;;;;;;;4.70;1.60;;;;;;;12.62;66.39;100068.44;213044;1278;142734;-65
2022/07/27 23:13:25;;;;;;;1.60;1.50;;;;;;;12.56;66.41;100075.01;213177;1278;141281;-66
2022/07/27 23:18:35;;;;;;;1.50;1.40;;;;;;;12.48;66.54;100077.05;212857;1277;140772;-64
2022/07/27 23:23:38;;;;;;;1.30;1.00;;;;;;;12.35;66.53;100079.48;213733;1278;141123;-65
2022/07/27 23:28:56;;;;;;;6.90;2.00;;;;;;;12.22;66.90;100084.23;213560;1277;141812;-63
2022/07/27 23:33:58;;;;;;;1.40;1.30;;;;;;;12.19;67.07;100086.70;214241;1278;139761;-64